Time;durP1;ratioP1;P1;durP2;ratioP2;P2;SDS_P1;SDS_P2;PMS_P1;PMS_P2;Temp;Humidity;BMP_temperature;BMP_pressure;BME280_temperature;BME280_humidity;BME280_pressure;Samples;Min_cycle;Max_cycle;Signal;HPM_P1;HPM_P2
2023/03/23 00:01:10;;;;;;;19.27;15.13;;;12.20;99.90;;;;;;5018342;28;20132;-83
2023/03/23 00:03:40;;;;;;;18.33;14.25;;;12.20;99.90;;;;;;5002455;28;20048;-83
2023/03/23 00:06:07;;;;;;;20.75;14.35;;;12.20;99.90;;;;;;5018381;28;20128;-83
2023/03/23 00:08:45;;;;;;;19.02;15.57;;;12.20;99.90;;;;;;5004580;28;20156;-83
2023/03/23 00:11:19;;;;;;;18.23;14.70;;;12.20;99.90;;;;;;5019408;28;20533;-83
2023/03/23 00:13:50;;;;;;;24.75;14.52;;;12.20;99.90;;;;;;5001468;28;20051;-83
2023/03/23 00:16:17;;;;;;;13.90;12.05;;;12.20;99.90;;;;;;5025562;28;20049;-83
2023/03/23 00:18:49;;;;;;;17.95;13.20;;;12.30;99.90;;;;;;5001537;28;20124;-83
2023/03/23 00:21:15;;;;;;;15.35;12.77;;;12.30;99.90;;;;;;5001478;28;20738;-83
2023/03/23 00:23:44;;;;;;;16.92;11.43;;;12.30;99.90;;;;;;5020041;28;20057;-83
2023/03/23 00:26:11;;;;;;;15.80;12.32;;;12.30;99.90;;;;;;5003067;28;20037;-83
2023/03/23 00:28:39;;;;;;;14.80;11.73;;;12.30;99.90;;;;;;5005011;28;20468;-83
2023/03/23 00:31:07;;;;;;;14.07;11.30;;;12.30;99.90;;;;;;5020704;28;20909;-83
2023/03/23 00:33:38;;;;;;;15.60;12.20;;;12.30;99.90;;;;;;4998999;28;20128;-83
2023/03/23 00:36:05;;;;;;;18.70;11.82;;;12.30;99.90;;;;;;5002612;28;20170;-83
2023/03/23 00:38:31;;;;;;;13.93;12.02;;;12.30;99.90;;;;;;5020151;28;20893;-83
2023/03/23 00:40:57;;;;;;;20.63;12.05;;;12.20;99.90;;;;;;5005408;28;20041;-83
2023/03/23 00:43:24;;;;;;;15.35;11.30;;;12.20;99.90;;;;;;5004081;28;20053;-83
2023/03/23 00:45:53;;;;;;;15.25;10.98;;;12.10;99.90;;;;;;5043912;28;20462;-83
2023/03/23 00:48:23;;;;;;;14.20;11.77;;;12.20;99.90;;;;;;5016335;28;20048;-84
2023/03/23 00:50:50;;;;;;;15.07;9.93;;;12.10;99.90;;;;;;5018231;28;20090;-83
2023/03/23 00:53:16;;;;;;;15.85;10.23;;;12.00;99.90;;;;;;5000048;28;20053;-84
2023/03/23 00:55:42;;;;;;;13.15;9.77;;;12.10;99.90;;;;;;5017828;28;20107;-84
2023/03/23 00:58:09;;;;;;;9.50;7.00;;;12.00;99.90;;;;;;5004789;28;20458;-85
2023/03/23 01:00:35;;;;;;;14.30;8.73;;;11.80;99.90;;;;;;5001409;28;20048;-83
2023/03/23 01:03:01;;;;;;;10.30;9.18;;;11.80;99.90;;;;;;5002498;28;20104;-83
2023/03/23 01:05:31;;;;;;;9.32;8.32;;;11.90;99.90;;;;;;4994095;28;20128;-83
2023/03/23 01:07:58;;;;;;;13.73;9.18;;;11.90;99.90;;;;;;5002014;28;20148;-83
2023/03/23 01:10:26;;;;;;;12.90;8.80;;;11.80;99.90;;;;;;5012065;28;20376;-83
2023/03/23 01:12:52;;;;;;;9.63;7.07;;;11.80;99.90;;;;;;4998092;28;20033;-83
2023/03/23 01:15:21;;;;;;;11.65;8.27;;;11.80;99.90;;;;;;5023463;28;20597;-84
2023/03/23 01:17:47;;;;;;;10.05;7.80;;;11.80;99.90;;;;;;5003211;28;20406;-83
2023/03/23 01:20:16;;;;;;;10.15;8.52;;;11.80;99.90;;;;;;5013537;28;20037;-82
2023/03/23 01:22:42;;;;;;;12.52;9.65;;;11.80;99.90;;;;;;5000509;28;20037;-82
2023/03/23 01:25:10;;;;;;;13.57;9.10;;;11.80;99.90;;;;;;4997979;28;20126;-82
2023/03/23 01:27:36;;;;;;;14.60;9.95;;;11.90;99.90;;;;;;5015956;28;20037;-83
2023/03/23 01:30:04;;;;;;;13.77;9.50;;;11.90;99.90;;;;;;5002604;28;20053;-82
2023/03/23 01:32:30;;;;;;;12.50;9.40;;;11.80;99.90;;;;;;5019011;28;20538;-83
2023/03/23 01:34:55;;;;;;;16.38;8.98;;;11.80;99.90;;;;;;4997260;28;20056;-82
2023/03/23 01:37:26;;;;;;;13.52;8.65;;;11.80;99.90;;;;;;5042373;28;20045;-83
2023/03/23 01:39:53;;;;;;;12.15;8.30;;;11.70;99.90;;;;;;4999240;28;20054;-83
2023/03/23 01:42:25;;;;;;;13.35;9.15;;;11.70;99.90;;;;;;5003028;28;20139;-83
2023/03/23 01:44:50;;;;;;;14.02;8.38;;;11.70;99.90;;;;;;5016813;28;20280;-83
2023/03/23 01:47:18;;;;;;;13.55;7.85;;;11.70;99.90;;;;;;5020051;28;20278;-83
2023/03/23 01:49:47;;;;;;;13.13;7.53;;;11.70;99.90;;;;;;5014136;28;20414;-83
2023/03/23 01:52:18;;;;;;;15.07;7.72;;;11.80;99.90;;;;;;5002409;28;20383;-83
2023/03/23 01:54:46;;;;;;;11.63;7.40;;;11.80;99.90;;;;;;5027965;28;20082;-83
2023/03/23 01:57:15;;;;;;;13.63;6.90;;;11.70;99.90;;;;;;5002045;28;20172;-83
2023/03/23 01:59:45;;;;;;;12.90;7.38;;;11.80;99.90;;;;;;5016333;28;20030;-83
2023/03/23 02:02:12;;;;;;;8.88;7.10;;;11.80;99.90;;;;;;5045723;28;20304;-83
2023/03/23 02:04:39;;;;;;;11.95;6.80;;;11.70;99.90;;;;;;5014734;28;20521;-82
2023/03/23 02:07:04;;;;;;;9.63;6.97;;;11.70;99.90;;;;;;5019160;28;20044;-82
2023/03/23 02:09:30;;;;;;;9.57;6.75;;;11.80;99.90;;;;;;5017475;28;20033;-82
2023/03/23 02:11:56;;;;;;;10.60;6.15;;;11.80;99.90;;;;;;5016342;28;20045;-83
2023/03/23 02:14:25;;;;;;;9.85;6.10;;;11.70;99.90;;;;;;5019874;28;20983;-83
2023/03/23 02:17:49;;;;;;;10.55;6.07;;;11.80;99.90;;;;;;5000329;28;20294;-84
2023/03/23 02:20:38;;;;;;;8.13;5.35;;;11.70;99.90;;;;;;4921501;28;20101;-83
2023/03/23 02:23:16;;;;;;;8.27;5.75;;;11.80;99.90;;;;;;4966417;28;20121;-83
2023/03/23 02:26:08;;;;;;;9.27;5.60;;;11.80;99.90;;;;;;4981943;28;20099;-82
2023/03/23 02:28:36;;;;;;;12.50;5.97;;;11.70;99.90;;;;;;5000717;28;20120;-83
2023/03/23 02:31:38;;;;;;;9.23;6.05;;;11.70;99.90;;;;;;5002605;28;20671;-83
2023/03/23 02:34:06;;;;;;;11.35;5.57;;;11.60;99.90;;;;;;4998795;28;20037;-83
2023/03/23 02:36:46;;;;;;;6.63;5.20;;;11.70;99.90;;;;;;5000632;28;20053;-83
2023/03/23 02:39:21;;;;;;;8.63;5.13;;;11.60;99.90;;;;;;5002873;28;20045;-83
2023/03/23 02:41:57;;;;;;;7.20;5.60;;;11.60;99.90;;;;;;4999785;28;20034;-83
2023/03/23 02:44:29;;;;;;;9.77;5.22;;;11.60;99.90;;;;;;5010708;28;20137;-83
2023/03/23 02:46:57;;;;;;;7.20;5.03;;;11.50;99.90;;;;;;4998137;28;20076;-83
2023/03/23 02:49:25;;;;;;;10.95;5.07;;;11.50;99.90;;;;;;5028327;28;20130;-83
2023/03/23 02:51:53;;;;;;;11.95;5.18;;;11.50;99.90;;;;;;5020660;28;20493;-83
2023/03/23 02:54:22;;;;;;;7.80;4.72;;;11.50;99.90;;;;;;5000655;28;20033;-83
2023/03/23 02:56:50;;;;;;;8.30;5.28;;;11.50;99.90;;;;;;4997690;28;20262;-83
2023/03/23 02:59:16;;;;;;;7.72;5.20;;;11.50;99.90;;;;;;5024468;28;20044;-82
2023/03/23 03:01:42;;;;;;;10.75;4.95;;;11.50;99.90;;;;;;5016589;28;20037;-83
2023/03/23 03:04:12;;;;;;;10.85;5.22;;;11.40;99.90;;;;;;5021948;28;20187;-82
2023/03/23 03:07:03;;;;;;;9.23;5.35;;;11.40;99.90;;;;;;5020108;28;20402;-83
2023/03/23 03:09:54;;;;;;;9.10;4.57;;;11.50;99.90;;;;;;4998364;28;20044;-83
2023/03/23 03:12:55;;;;;;;9.88;4.70;;;11.50;99.90;;;;;;5038731;28;20128;-83
2023/03/23 03:15:37;;;;;;;9.40;4.43;;;11.50;99.90;;;;;;5022805;28;20052;-83
2023/03/23 03:18:22;;;;;;;8.13;4.85;;;11.50;99.90;;;;;;5000397;28;20041;-83
2023/03/23 03:20:53;;;;;;;7.35;4.47;;;11.50;99.90;;;;;;5011565;28;20060;-83
2023/03/23 03:23:21;;;;;;;6.57;4.32;;;11.40;99.90;;;;;;5015165;28;20029;-83
2023/03/23 03:25:48;;;;;;;11.20;5.25;;;11.50;99.90;;;;;;5002718;28;20048;-83
2023/03/23 03:28:21;;;;;;;8.90;4.45;;;11.40;99.90;;;;;;5014680;28;20132;-83
2023/03/23 03:30:55;;;;;;;7.72;4.50;;;11.40;99.90;;;;;;5017449;28;20041;-83
2023/03/23 03:33:25;;;;;;;10.00;4.38;;;11.40;99.90;;;;;;5000771;28;20426;-83
2023/03/23 03:35:55;;;;;;;8.85;4.40;;;11.40;99.90;;;;;;5011930;28;20053;-83
2023/03/23 03:38:21;;;;;;;7.65;4.20;;;11.40;99.90;;;;;;5020118;28;20415;-83
2023/03/23 03:40:47;;;;;;;7.05;3.85;;;11.40;99.90;;;;;;5003925;28;20413;-83
2023/03/23 03:43:13;;;;;;;9.70;4.10;;;11.40;99.90;;;;;;5018028;28;20243;-83
2023/03/23 03:45:39;;;;;;;5.57;3.95;;;11.40;99.90;;;;;;5006438;28;20488;-83
2023/03/23 03:48:08;;;;;;;11.85;4.82;;;11.40;99.90;;;;;;5030919;28;20290;-83
2023/03/23 03:50:33;;;;;;;7.97;4.10;;;11.40;99.90;;;;;;5047290;28;20268;-83
2023/03/23 03:52:59;;;;;;;7.40;4.57;;;11.40;99.90;;;;;;5019728;28;20072;-83
2023/03/23 03:55:27;;;;;;;10.13;4.78;;;11.40;99.90;;;;;;5018230;28;20060;-83
2023/03/23 03:57:57;;;;;;;8.15;4.78;;;11.40;99.90;;;;;;5005403;28;20033;-83
2023/03/23 04:00:23;;;;;;;8.43;4.65;;;11.40;99.90;;;;;;5006516;28;20136;-83
2023/03/23 04:02:54;;;;;;;7.20;5.15;;;11.30;99.90;;;;;;5017349;28;20366;-83
2023/03/23 04:05:22;;;;;;;9.82;4.88;;;11.30;99.90;;;;;;5018227;28;20413;-83
2023/03/23 04:07:51;;;;;;;9.23;5.38;;;11.30;99.90;;;;;;5003268;28;20030;-84
2023/03/23 04:10:21;;;;;;;8.70;5.38;;;11.40;99.90;;;;;;5017985;28;20084;-83
2023/03/23 04:12:48;;;;;;;10.55;5.57;;;11.40;99.90;;;;;;5002304;28;20367;-83
2023/03/23 04:15:14;;;;;;;7.07;5.30;;;11.30;99.90;;;;;;5003024;28;20033;-83
2023/03/23 04:17:40;;;;;;;9.60;5.78;;;11.40;99.90;;;;;;5031834;28;20387;-83
2023/03/23 04:20:08;;;;;;;8.20;5.90;;;11.40;99.90;;;;;;5002995;28;20078;-83
2023/03/23 04:22:34;;;;;;;10.52;5.22;;;11.40;99.90;;;;;;5005575;28;20038;-83
2023/03/23 04:25:04;;;;;;;8.80;5.35;;;11.40;99.90;;;;;;5000069;28;20288;-83
2023/03/23 04:27:29;;;;;;;9.15;5.00;;;11.50;99.90;;;;;;5003599;28;20049;-83
2023/03/23 04:29:57;;;;;;;8.18;5.60;;;11.50;99.90;;;;;;5017539;28;20041;-83
2023/03/23 04:32:24;;;;;;;9.55;5.57;;;11.70;99.90;;;;;;5000045;28;20077;-83
2023/03/23 04:34:50;;;;;;;9.02;5.35;;;11.50;99.90;;;;;;5018273;28;20125;-83
2023/03/23 04:37:17;;;;;;;7.75;5.00;;;11.40;99.90;;;;;;5001312;28;20119;-83
2023/03/23 04:39:45;;;;;;;9.55;5.43;;;11.60;99.90;;;;;;5003793;28;20065;-83
2023/03/23 04:42:11;;;;;;;8.13;5.72;;;11.60;99.90;;;;;;5023893;28;20025;-83
2023/03/23 04:44:36;;;;;;;8.60;5.43;;;11.60;99.90;;;;;;5001647;28;20271;-83
2023/03/23 04:47:02;;;;;;;9.80;5.40;;;11.60;99.90;;;;;;4999900;28;20418;-83
2023/03/23 04:49:29;;;;;;;8.23;5.15;;;11.60;99.90;;;;;;5029963;28;20033;-83
2023/03/23 04:51:56;;;;;;;9.68;5.13;;;11.50;99.90;;;;;;5001360;28;20099;-83
2023/03/23 04:54:22;;;;;;;7.80;5.70;;;11.50;99.90;;;;;;5023533;28;20037;-83
2023/03/23 04:56:48;;;;;;;7.13;5.15;;;11.50;99.90;;;;;;5029791;28;20037;-83
2023/03/23 04:59:14;;;;;;;9.77;5.30;;;11.50;99.90;;;;;;5022534;28;20110;-83
2023/03/23 05:01:44;;;;;;;6.95;5.22;;;11.40;99.90;;;;;;5016155;28;20045;-83
2023/03/23 05:04:12;;;;;;;8.18;4.45;;;11.40;99.90;;;;;;5018001;28;20518;-83
2023/03/23 05:06:38;;;;;;;7.13;4.10;;;11.30;99.90;;;;;;5001163;28;20382;-83
2023/03/23 05:09:07;;;;;;;10.43;3.65;;;11.30;99.90;;;;;;5004194;28;20083;-83
2023/03/23 05:11:36;;;;;;;7.30;3.25;;;11.10;99.90;;;;;;5027428;28;20056;-83
2023/03/23 05:14:04;;;;;;;8.38;3.17;;;11.10;99.90;;;;;;4999518;28;20818;-83
2023/03/23 05:16:30;;;;;;;6.70;2.70;;;11.00;99.90;;;;;;4999115;28;20071;-82
2023/03/23 05:18:57;;;;;;;10.07;2.95;;;11.10;99.90;;;;;;5016817;28;20069;-83
2023/03/23 05:21:23;;;;;;;10.38;3.20;;;11.10;99.90;;;;;;5019010;28;20102;-84
2023/03/23 05:23:54;;;;;;;8.02;2.90;;;11.10;99.90;;;;;;5007137;28;20036;-83
2023/03/23 05:26:24;;;;;;;9.38;3.10;;;11.00;99.90;;;;;;5001640;28;20038;-83
2023/03/23 05:28:54;;;;;;;8.57;2.65;;;11.00;99.90;;;;;;5003196;28;20036;-83
2023/03/23 05:31:20;;;;;;;5.60;2.72;;;11.00;99.90;;;;;;5004207;28;20567;-83
2023/03/23 05:33:49;;;;;;;6.25;2.40;;;11.00;99.90;;;;;;4998987;28;20541;-83
2023/03/23 05:36:15;;;;;;;9.95;2.70;;;11.00;99.90;;;;;;5014306;28;20057;-82
2023/03/23 05:38:49;;;;;;;8.50;2.78;;;11.00;99.90;;;;;;5017236;28;20110;-84
2023/03/23 05:41:15;;;;;;;10.38;2.75;;;11.00;99.90;;;;;;5017553;28;20064;-83
2023/03/23 05:43:41;;;;;;;11.30;2.80;;;10.90;99.90;;;;;;5003704;28;20084;-83
2023/03/23 05:46:07;;;;;;;6.72;2.60;;;10.90;99.90;;;;;;5015305;28;20048;-83
2023/03/23 05:48:33;;;;;;;12.20;2.92;;;10.90;99.90;;;;;;5002243;28;20091;-83
2023/03/23 05:50:59;;;;;;;9.23;2.70;;;10.90;99.90;;;;;;5000001;28;20049;-83
2023/03/23 05:53:29;;;;;;;10.90;2.85;;;10.90;99.90;;;;;;5004653;28;20030;-83
2023/03/23 05:55:59;;;;;;;15.23;2.70;;;10.90;99.90;;;;;;5021027;28;20033;-83
2023/03/23 05:58:25;;;;;;;15.27;3.03;;;10.90;99.90;;;;;;5023823;28;20044;-83
2023/03/23 06:00:51;;;;;;;10.68;2.90;;;10.90;99.90;;;;;;5000632;28;20033;-83
2023/03/23 06:03:23;;;;;;;15.57;3.30;;;11.00;99.90;;;;;;5016680;28;20049;-83
2023/03/23 06:05:48;;;;;;;15.00;3.78;;;11.00;99.90;;;;;;5016888;28;20148;-83
2023/03/23 06:08:14;;;;;;;16.02;3.38;;;11.00;99.90;;;;;;5000980;28;20135;-83
2023/03/23 06:10:40;;;;;;;13.65;3.10;;;11.00;99.90;;;;;;5001589;28;20046;-83
2023/03/23 06:13:06;;;;;;;9.77;2.70;;;11.00;99.90;;;;;;4991035;28;20128;-84
2023/03/23 06:15:32;;;;;;;14.30;3.30;;;11.00;99.90;;;;;;5043763;28;20471;-83
2023/03/23 06:18:17;;;;;;;13.23;3.08;;;11.10;99.90;;;;;;5000601;28;20048;-83
2023/03/23 06:20:43;;;;;;;13.57;2.97;;;11.10;99.90;;;;;;5027414;28;20783;-83
2023/03/23 06:23:09;;;;;;;13.52;3.45;;;11.10;99.90;;;;;;5017522;28;20042;-83
2023/03/23 06:25:35;;;;;;;16.98;3.47;;;11.10;99.90;;;;;;5015393;28;20026;-83
2023/03/23 06:28:01;;;;;;;19.75;3.97;;;11.10;99.90;;;;;;5020572;28;20038;-83
2023/03/23 06:30:28;;;;;;;14.30;3.33;;;11.10;99.90;;;;;;5016543;28;20038;-83
2023/03/23 06:32:55;;;;;;;15.73;3.53;;;11.20;99.90;;;;;;4999789;28;20029;-83
2023/03/23 06:35:21;;;;;;;14.65;3.40;;;11.20;99.90;;;;;;4999610;28;20111;-83
2023/03/23 06:37:46;;;;;;;12.23;2.83;;;11.20;99.90;;;;;;5018137;28;20619;-84
2023/03/23 06:40:12;;;;;;;19.55;3.63;;;11.20;99.90;;;;;;5003653;28;20049;-83
2023/03/23 06:42:38;;;;;;;18.85;3.40;;;11.10;99.90;;;;;;5003346;28;20065;-83
2023/03/23 06:45:05;;;;;;;14.27;3.50;;;11.10;99.90;;;;;;5013234;28;20426;-83
2023/03/23 06:47:31;;;;;;;14.25;3.65;;;11.10;99.90;;;;;;5001565;28;20422;-83
2023/03/23 06:49:59;;;;;;;12.27;3.45;;;11.10;99.90;;;;;;5030819;28;20133;-84
2023/03/23 06:52:26;;;;;;;12.40;3.08;;;11.20;99.90;;;;;;5020762;28;20044;-83
2023/03/23 06:54:52;;;;;;;14.00;3.65;;;11.30;99.90;;;;;;5002021;28;20656;-83
2023/03/23 06:57:19;;;;;;;17.00;4.05;;;11.30;99.90;;;;;;4999416;28;20034;-83
2023/03/23 06:59:45;;;;;;;12.43;3.70;;;11.30;99.90;;;;;;5017507;28;20155;-83
2023/03/23 07:02:13;;;;;;;12.82;3.58;;;11.30;99.90;;;;;;5013286;28;20063;-84
2023/03/23 07:04:40;;;;;;;15.00;3.10;;;11.30;99.90;;;;;;4997947;28;20490;-83
2023/03/23 07:07:09;;;;;;;18.27;3.85;;;11.30;99.90;;;;;;5002342;28;20351;-83
2023/03/23 07:09:34;;;;;;;18.02;3.53;;;11.20;99.90;;;;;;4998788;28;20037;-83
2023/03/23 07:12:00;;;;;;;15.80;3.80;;;11.30;99.90;;;;;;5031333;28;20072;-83
2023/03/23 07:14:26;;;;;;;18.05;4.07;;;11.20;99.90;;;;;;5001800;28;20057;-84
2023/03/23 07:16:53;;;;;;;12.82;3.40;;;11.20;99.90;;;;;;5003113;28;20038;-83
2023/03/23 07:19:19;;;;;;;13.25;4.00;;;11.20;99.90;;;;;;5019092;28;20056;-83
2023/03/23 07:21:45;;;;;;;19.15;4.35;;;11.20;99.90;;;;;;5018067;28;20444;-83
2023/03/23 07:24:13;;;;;;;14.98;4.18;;;11.20;99.90;;;;;;5005492;28;20471;-84
2023/03/23 07:26:41;;;;;;;22.45;4.03;;;11.20;99.90;;;;;;5001679;28;20053;-84
2023/03/23 07:29:08;;;;;;;21.20;3.92;;;11.10;99.90;;;;;;5001781;28;20047;-84
2023/03/23 07:31:33;;;;;;;20.95;4.70;;;11.10;99.90;;;;;;5029924;28;20454;-83
2023/03/23 07:33:59;;;;;;;17.35;4.30;;;11.20;99.90;;;;;;5004900;28;20047;-84
2023/03/23 07:36:26;;;;;;;22.85;4.28;;;11.30;99.90;;;;;;5014757;28;20847;-84
2023/03/23 07:38:51;;;;;;;18.85;4.43;;;11.30;99.90;;;;;;5005817;28;20033;-83
2023/03/23 07:41:17;;;;;;;22.73;4.40;;;11.30;99.90;;;;;;5022585;28;20033;-83
2023/03/23 07:43:43;;;;;;;22.13;3.95;;;11.40;99.90;;;;;;5017271;28;20099;-84
2023/03/23 07:46:08;;;;;;;16.73;3.80;;;11.40;99.90;;;;;;5018152;28;20055;-84
2023/03/23 07:48:34;;;;;;;20.98;4.57;;;11.40;99.90;;;;;;5018783;28;20052;-84
2023/03/23 07:51:00;;;;;;;20.23;4.60;;;11.40;99.90;;;;;;5007232;28;20051;-84
2023/03/23 07:53:25;;;;;;;21.17;4.05;;;11.40;99.90;;;;;;5028891;28;20044;-83
2023/03/23 07:55:52;;;;;;;25.10;5.15;;;11.40;99.90;;;;;;5004995;28;20338;-84
2023/03/23 07:58:19;;;;;;;20.33;5.07;;;11.60;99.90;;;;;;5020189;28;20111;-84
2023/03/23 08:00:48;;;;;;;19.48;4.22;;;11.60;99.90;;;;;;5004543;28;20187;-84
2023/03/23 08:03:14;;;;;;;18.40;4.30;;;11.60;99.90;;;;;;5001069;28;20033;-83
2023/03/23 08:05:41;;;;;;;33.47;5.30;;;11.60;99.90;;;;;;5001873;28;20586;-84
2023/03/23 08:08:09;;;;;;;19.30;3.75;;;11.60;99.90;;;;;;5020654;28;20049;-83
2023/03/23 08:10:37;;;;;;;20.88;4.45;;;11.60;99.90;;;;;;5007385;28;20077;-84
2023/03/23 08:13:03;;;;;;;18.60;4.40;;;11.60;99.90;;;;;;5003867;28;20041;-84
2023/03/23 08:15:29;;;;;;;24.27;5.03;;;11.60;99.90;;;;;;5032295;28;20069;-84
2023/03/23 08:17:55;;;;;;;21.40;4.25;;;11.70;99.90;;;;;;5021695;28;20030;-84
2023/03/23 08:20:25;;;;;;;17.88;3.58;;;11.60;99.90;;;;;;4999379;28;20041;-83
2023/03/23 08:22:56;;;;;;;23.13;4.63;;;11.60;99.90;;;;;;5019847;28;20037;-84
2023/03/23 08:25:24;;;;;;;19.20;3.80;;;11.70;99.90;;;;;;5003796;28;20033;-84
2023/03/23 08:27:50;;;;;;;20.67;4.32;;;11.70;99.90;;;;;;5001356;28;20038;-84
2023/03/23 08:30:19;;;;;;;20.70;4.80;;;11.80;99.90;;;;;;4999197;28;20053;-84
2023/03/23 08:32:46;;;;;;;25.88;4.85;;;11.80;99.90;;;;;;5002893;28;20283;-84
2023/03/23 08:35:12;;;;;;;21.13;4.68;;;11.80;99.90;;;;;;4999026;28;20541;-84
2023/03/23 08:37:38;;;;;;;18.63;4.15;;;11.80;99.90;;;;;;5020838;28;20490;-84
2023/03/23 08:40:09;;;;;;;21.02;5.20;;;11.80;99.90;;;;;;5002010;28;20517;-84
2023/03/23 08:42:37;;;;;;;19.48;4.55;;;11.70;99.90;;;;;;5014478;28;20461;-84
2023/03/23 08:45:08;;;;;;;22.92;4.60;;;11.70;99.90;;;;;;5002532;28;20041;-84
2023/03/23 08:47:35;;;;;;;23.40;4.63;;;11.60;99.90;;;;;;4999591;28;20084;-89
2023/03/23 08:50:02;;;;;;;19.20;4.60;;;11.60;99.90;;;;;;5018234;28;20117;-90
2023/03/23 08:52:29;;;;;;;27.65;5.30;;;11.70;99.90;;;;;;5018143;28;20474;-90
2023/03/23 08:54:56;;;;;;;23.77;4.57;;;11.80;99.90;;;;;;5002983;28;20049;-89
2023/03/23 08:57:23;;;;;;;29.17;5.68;;;12.20;99.90;;;;;;5016464;28;20042;-90
2023/03/23 08:59:49;;;;;;;21.02;4.93;;;12.40;99.90;;;;;;5006011;28;20044;-90
2023/03/23 09:02:18;;;;;;;21.67;4.93;;;12.30;99.90;;;;;;5003900;28;20061;-89
2023/03/23 09:04:46;;;;;;;20.38;4.82;;;12.40;99.90;;;;;;5001902;28;20148;-90
2023/03/23 09:07:14;;;;;;;23.80;4.85;;;12.50;99.90;;;;;;5006092;28;20174;-89
2023/03/23 09:09:40;;;;;;;24.48;5.22;;;12.40;99.90;;;;;;5019623;28;20038;-90
2023/03/23 09:12:09;;;;;;;24.73;5.70;;;12.70;99.90;;;;;;5005336;28;20107;-89
2023/03/23 09:14:36;;;;;;;27.33;5.53;;;12.90;99.90;;;;;;4999722;28;20280;-90
2023/03/23 09:17:02;;;;;;;28.65;5.20;;;12.80;99.90;;;;;;5018808;28;20052;-90
2023/03/23 09:19:29;;;;;;;22.77;4.50;;;12.70;99.90;;;;;;5000113;28;20045;-88
2023/03/23 09:21:55;;;;;;;22.88;5.15;;;12.60;99.90;;;;;;5003850;28;20037;-90
2023/03/23 09:24:21;;;;;;;17.75;5.03;;;12.50;99.90;;;;;;5005480;28;20067;-89
2023/03/23 09:26:47;;;;;;;20.20;4.55;;;12.50;99.90;;;;;;5002343;28;20045;-90
2023/03/23 09:29:13;;;;;;;20.30;4.30;;;12.50;99.90;;;;;;5007933;28;20056;-89
2023/03/23 09:31:42;;;;;;;22.75;4.68;;;12.70;99.90;;;;;;5035581;28;20037;-90
2023/03/23 09:34:09;;;;;;;16.92;4.80;;;12.80;99.90;;;;;;5015095;28;20045;-89
2023/03/23 09:36:36;;;;;;;21.30;4.68;;;12.50;99.90;;;;;;5000530;28;20111;-90
2023/03/23 09:39:09;;;;;;;29.27;5.03;;;12.80;99.90;;;;;;5002852;28;20041;-90
2023/03/23 09:42:01;;;;;;;21.13;4.10;;;13.00;99.90;;;;;;5018574;28;20045;-90
2023/03/23 09:44:58;;;;;;;18.20;4.30;;;13.00;99.90;;;;;;5003865;28;20269;-90
2023/03/23 09:47:33;;;;;;;19.67;4.30;;;13.00;99.90;;;;;;5018221;28;20465;-90
2023/03/23 09:49:59;;;;;;;;;;;12.90;99.90;;;;;;5017490;28;20093;-90
2023/03/23 09:52:43;;;;;;;23.67;5.22;;;13.10;99.90;;;;;;5001935;28;20011;-90
2023/03/23 09:55:16;;;;;;;19.92;4.55;;;13.20;99.90;;;;;;5042439;28;20273;-90
2023/03/23 09:58:16;;;;;;;19.95;4.28;;;13.50;99.90;;;;;;5019785;28;20314;-90
2023/03/23 10:00:51;;;;;;;16.80;4.07;;;13.40;99.90;;;;;;5004077;28;20515;-90
2023/03/23 10:03:20;;;;;;;19.23;4.82;;;13.60;99.90;;;;;;5018700;28;20033;-90
2023/03/23 10:05:52;;;;;;;17.98;3.92;;;13.80;99.90;;;;;;5046177;28;20421;-90
2023/03/23 10:08:22;;;;;;;23.67;4.40;;;13.70;99.90;;;;;;5005036;28;20099;-89
2023/03/23 10:11:10;;;;;;;20.45;4.32;;;13.90;99.90;;;;;;5021290;28;20052;-90
2023/03/23 10:13:57;;;;;;;19.40;4.30;;;13.70;99.90;;;;;;5029782;28;20041;-90
2023/03/23 10:16:27;;;;;;;19.65;4.13;;;13.70;99.90;;;;;;5028408;28;20033;-91
2023/03/23 10:19:15;;;;;;;16.08;3.60;;;13.90;99.90;;;;;;5000161;28;20171;-89
2023/03/23 10:21:54;;;;;;;16.55;3.67;;;13.90;99.90;;;;;;5002890;28;20045;-90
2023/03/23 10:24:34;;;;;;;22.40;4.45;;;13.60;99.90;;;;;;5022288;28;20108;-90
2023/03/23 10:27:13;;;;;;;15.23;4.20;;;13.60;99.90;;;;;;5020500;28;20033;-90
2023/03/23 10:30:03;;;;;;;18.20;4.30;;;13.40;99.90;;;;;;4999389;28;20538;-90
2023/03/23 10:32:54;;;;;;;18.00;3.90;;;13.20;99.90;;;;;;5002355;28;20041;-89
2023/03/23 10:35:26;;;;;;;16.58;3.90;;;12.80;99.90;;;;;;4996696;28;20064;-89
2023/03/23 10:38:05;;;;;;;17.20;4.20;;;12.90;99.90;;;;;;5003996;28;20149;-90
2023/03/23 10:40:33;;;;;;;18.65;4.25;;;13.00;99.90;;;;;;5017866;28;20036;-89
2023/03/23 10:42:59;;;;;;;16.92;3.80;;;13.40;99.90;;;;;;5001589;28;20036;-90
2023/03/23 10:45:32;;;;;;;14.07;3.35;;;13.20;99.90;;;;;;5022360;28;20033;-89
2023/03/23 10:48:19;;;;;;;17.15;3.60;;;13.50;99.90;;;;;;5001726;28;20075;-90
2023/03/23 10:50:49;;;;;;;15.50;3.40;;;13.20;99.90;;;;;;5021062;28;20126;-90
2023/03/23 10:53:32;;;;;;;13.20;3.88;;;13.50;99.90;;;;;;5005500;28;20041;-90
2023/03/23 10:55:59;;;;;;;15.73;3.65;;;13.30;99.90;;;;;;5003440;28;20178;-89
2023/03/23 10:58:35;;;;;;;16.25;3.65;;;13.20;99.90;;;;;;5019739;28;20585;-89
2023/03/23 11:01:04;;;;;;;17.13;4.05;;;13.10;99.90;;;;;;5020558;28;20045;-89
2023/03/23 11:03:32;;;;;;;18.17;4.32;;;12.90;99.90;;;;;;5005326;28;20211;-89
2023/03/23 11:06:05;;;;;;;20.35;3.80;;;12.90;99.90;;;;;;5003029;28;20316;-89
2023/03/23 11:08:49;;;;;;;13.82;3.95;;;13.20;99.90;;;;;;5007633;28;20360;-90
2023/03/23 11:11:24;;;;;;;13.85;3.42;;;13.80;99.90;;;;;;5004970;28;20069;-90
2023/03/23 11:13:56;;;;;;;17.73;4.10;;;14.40;99.90;;;;;;5021826;28;20050;-89
2023/03/23 11:16:26;;;;;;;15.20;4.20;;;14.50;99.90;;;;;;5005271;28;20042;-89
2023/03/23 11:18:52;;;;;;;13.82;3.08;;;14.60;99.90;;;;;;5036468;28;20557;-89
2023/03/23 11:21:21;;;;;;;10.15;3.15;;;14.30;99.90;;;;;;5003213;28;20037;-89
2023/03/23 11:23:53;;;;;;;12.40;3.08;;;14.10;99.90;;;;;;5018320;28;20041;-90
2023/03/23 11:26:27;;;;;;;15.27;3.60;;;13.70;99.90;;;;;;5003410;28;20041;-90
2023/03/23 11:29:10;;;;;;;13.60;3.10;;;13.80;99.90;;;;;;5017669;28;20584;-89
2023/03/23 11:31:44;;;;;;;17.60;3.25;;;13.70;99.90;;;;;;5019657;28;20132;-89
2023/03/23 11:34:15;;;;;;;9.85;2.95;;;13.70;99.90;;;;;;5003156;28;20127;-89
2023/03/23 11:36:48;;;;;;;12.05;2.42;;;13.60;99.90;;;;;;5005665;28;22137;-90
2023/03/23 11:39:27;;;;;;;14.02;2.90;;;13.60;99.90;;;;;;5001791;28;20037;-89
2023/03/23 11:41:54;;;;;;;14.15;3.13;;;13.90;99.90;;;;;;5000978;28;20494;-90
2023/03/23 11:44:23;;;;;;;13.73;3.25;;;13.80;99.90;;;;;;5002174;28;20037;-89
2023/03/23 11:47:08;;;;;;;12.90;3.60;;;14.10;99.90;;;;;;5021820;28;20050;-89
2023/03/23 11:49:51;;;;;;;12.15;3.20;;;14.70;99.90;;;;;;5020569;28;20037;-89
2023/03/23 11:52:32;;;;;;;10.40;3.03;;;14.40;99.90;;;;;;5038387;28;20121;-90
2023/03/23 11:55:09;;;;;;;11.02;3.17;;;14.80;99.90;;;;;;5020213;28;20120;-90
2023/03/23 11:57:35;;;;;;;13.52;2.78;;;15.20;99.90;;;;;;5020894;28;20549;-89
2023/03/23 12:00:11;;;;;;;12.73;2.90;;;15.10;99.90;;;;;;5044365;28;20049;-90
2023/03/23 12:02:45;;;;;;;15.27;2.83;;;14.70;99.90;;;;;;5020388;28;20569;-89
2023/03/23 12:05:26;;;;;;;10.77;2.80;;;14.90;99.90;;;;;;5031748;28;20482;-89
2023/03/23 12:08:19;;;;;;;10.30;2.55;;;15.30;99.90;;;;;;5023529;28;20164;-90
2023/03/23 12:11:06;;;;;;;12.55;3.08;;;15.00;99.90;;;;;;5024408;28;20076;-89
2023/03/23 12:14:10;;;;;;;10.88;2.53;;;14.90;99.90;;;;;;5028238;28;20144;-89
2023/03/23 12:16:47;;;;;;;8.77;2.83;;;15.30;99.90;;;;;;4992134;28;20049;-89
2023/03/23 12:19:28;;;;;;;9.55;2.67;;;15.60;99.90;;;;;;5018433;28;20037;-90
2023/03/23 12:22:38;;;;;;;14.27;3.03;;;15.40;99.90;;;;;;5005175;28;20087;-89
2023/03/23 12:25:29;;;;;;;11.98;2.90;;;14.90;99.90;;;;;;5020193;28;20121;-90
2023/03/23 12:28:17;;;;;;;11.57;3.20;;;14.70;99.90;;;;;;5020963;28;20261;-89
2023/03/23 12:31:15;;;;;;;11.02;2.83;;;14.80;99.90;;;;;;5020865;28;20045;-89
2023/03/23 12:34:02;;;;;;;10.32;2.50;;;14.90;99.90;;;;;;5018916;28;20084;-89
2023/03/23 12:36:40;;;;;;;9.75;2.67;;;15.20;99.90;;;;;;5016234;28;20050;-90
2023/03/23 12:40:09;;;;;;;10.68;2.40;;;15.40;99.90;;;;;;5007920;28;20107;-88
2023/03/23 12:42:53;;;;;;;9.45;2.53;;;15.50;99.90;;;;;;4944197;28;20258;-89
2023/03/23 12:45:47;;;;;;;11.48;2.80;;;15.40;99.90;;;;;;4926435;28;20038;-88
2023/03/23 12:48:24;;;;;;;11.68;2.50;;;15.80;99.90;;;;;;4999445;28;20182;-89
2023/03/23 12:51:30;;;;;;;11.00;2.50;;;15.20;99.90;;;;;;5026259;28;20087;-89
2023/03/23 12:54:11;;;;;;;10.73;2.80;;;15.50;99.90;;;;;;5040789;28;20579;-89
2023/03/23 12:57:08;;;;;;;15.65;3.13;;;15.70;99.90;;;;;;5026845;28;20045;-89
2023/03/23 12:59:41;;;;;;;11.80;2.78;;;15.30;99.90;;;;;;5020474;28;20051;-89